Elk Point, SD (57025)

7:17 PM CST on December 22, 2014 (GMT -0600)
McCook Lake SD | Change Station
CLOSE
Current Station
Personal Weather Station
Location: McCook Lake, SD
Elevation: 1114 ft
Nearby Weather Stations

Elev 1114 ft 42.54 °N, 96.51 °W | Updated 7 minutes ago

Mostly Cloudy
Mostly Cloudy
36.3 °F
Feels Like 33 °F
N
4.0
Wind Variable Wind from WNW
Gusts 17.0 mph

Today
High -- | Low -- °F
--% Chance of Precip.
Yesterday
High -- | Low -- °F
Precip. -- in
7:54 AM 4:56 PM
New Moon, 1% visible
Pressure 29.44 in
Visibility 5.0 miles
Clouds
Windchill 33 °F
Dew Point 35 °F
Humidity 95%
Rainfall 0.40 in
Snow Depth Not available.
UV Not available.
Pollen .10 out of 12
Air Quality Not available.
Flu Activity Not available.
METAR KLRJ 230055Z AUTO 00000KT 5SM BR 04/04 A2944 RMK AO2 P0004

More Conditions Fewer Conditions

Pressure 29.44 in
Visibility 5.0 miles
Clouds
Windchill 33 °F
Dew Point 35 °F
Humidity 95%
Rainfall 0.40 in
Snow Depth Not available.
UV Not available.
Pollen .10 out of 12
Air Quality Not available.
Flu Activity Not available.
METAR KLRJ 230055Z AUTO 00000KT 5SM BR 04/04 A2944 RMK AO2 P0004

More Conditions Fewer Conditions

10-Day Weather Forecast

Almanac

Astronomy

Dec. 22, 2014 Rise Set
Actual Time
Civil Twilight
Nautical Twilight
Astronomical Twilight
Moon
Length of Visible Light
Length of Day
Tomorrow will be .
, % of the Moon is Illuminated

Today's Extremes

State Highs State Lows

Community

WunderPhotos

Upload Photos

1,779,745 photos uploaded!

WunderBlogs® & News

Nearby

Air Quality

  Air Quality AQ Index Pollutant
Not available.

Snow Depth

Station Depth Elevation

Earthquake Activity

City Distance Mag. Time & Date
Minimum magnitude displayed is 2.5.

Coastal Water Temperatures

Place Temperature

Nearby Weather Stations